Time;durP1;ratioP1;P1;durP2;ratioP2;P2;SDS_P1;SDS_P2;PMS_P1;PMS_P2;Temp;Humidity;BMP_temperature;BMP_pressure;BME280_temperature;BME280_humidity;BME280_pressure;Samples;Min_cycle;Max_cycle;Signal;HPM_P1;HPM_P2
2021/10/08 00:01:40;;;;;;;79.78;30.45;;;;;;;6.68;100.00;103218.22;5073688;28;20467;-74
2021/10/08 00:04:06;;;;;;;93.05;34.35;;;;;;;6.68;100.00;103218.22;5092321;28;20495;-74
2021/10/08 00:06:31;;;;;;;90.70;32.33;;;;;;;6.64;100.00;103221.94;5091778;28;20095;-74
2021/10/08 00:08:57;;;;;;;111.35;38.20;;;;;;;6.62;100.00;103218.47;5092342;28;20031;-74
2021/10/08 00:11:23;;;;;;;110.85;37.58;;;;;;;6.65;100.00;103214.84;5091816;28;20042;-74
2021/10/08 00:13:48;;;;;;;67.47;29.80;;;;;;;6.59;100.00;103218.56;5092224;28;20052;-74
2021/10/08 00:16:14;;;;;;;58.97;25.95;;;;;;;6.53;100.00;103224.06;5092270;28;20028;-74
2021/10/08 00:18:40;;;;;;;53.22;22.70;;;;;;;6.49;100.00;103217.16;5091363;28;20114;-74
2021/10/08 00:21:07;;;;;;;48.20;22.60;;;;;;;6.46;100.00;103226.06;5092048;28;20059;-74
2021/10/08 00:23:33;;;;;;;52.45;23.92;;;;;;;6.44;100.00;103214.69;5091501;28;20028;-74
2021/10/08 00:25:59;;;;;;;49.88;23.42;;;;;;;6.42;100.00;103221.81;5092219;28;20032;-74
2021/10/08 00:28:24;;;;;;;44.95;19.85;;;;;;;6.41;100.00;103224.53;5073389;28;20031;-74
2021/10/08 00:30:50;;;;;;;50.47;23.88;;;;;;;6.40;100.00;103220.13;5092040;28;20494;-74
2021/10/08 00:33:15;;;;;;;54.13;25.10;;;;;;;6.38;100.00;103224.63;5091799;28;20094;-74
2021/10/08 00:35:41;;;;;;;63.67;27.23;;;;;;;6.37;100.00;103226.38;5073453;28;20028;-74
2021/10/08 00:38:07;;;;;;;71.57;28.92;;;;;;;6.39;100.00;103228.97;5091702;28;20031;-74
2021/10/08 00:40:46;;;;;;;84.97;30.85;;;;;;;6.39;100.00;103221.03;5091269;28;20024;-74
2021/10/08 00:43:11;;;;;;;48.63;21.98;;;;;;;6.35;100.00;103239.66;5091807;28;20359;-74
2021/10/08 00:45:37;;;;;;;39.10;19.30;;;;;;;6.29;100.00;103231.94;5091411;28;20028;-74
2021/10/08 00:48:05;;;;;;;53.67;23.63;;;;;;;6.26;100.00;103231.19;5092139;28;20036;-74
2021/10/08 00:50:35;;;;;;;65.35;27.08;;;;;;;6.26;100.00;103234.69;5091353;28;20028;-74
2021/10/08 00:53:00;;;;;;;64.32;25.58;;;;;;;6.25;100.00;103232.97;5077348;28;20402;-74
2021/10/08 00:55:26;;;;;;;53.88;22.90;;;;;;;6.20;100.00;103237.56;5095871;28;20032;-74
2021/10/08 00:57:51;;;;;;;64.63;25.08;;;;;;;6.17;100.00;103232.38;5099061;28;20119;-73
2021/10/08 01:00:18;;;;;;;67.30;25.98;;;;;;;6.16;100.00;103235.94;5097554;28;20358;-73
2021/10/08 01:02:44;;;;;;;79.25;30.13;;;;;;;6.18;100.00;103234.09;5095003;28;20059;-73
2021/10/08 01:05:10;;;;;;;81.55;30.45;;;;;;;6.16;100.00;103233.28;5095576;28;20094;-73
2021/10/08 01:07:36;;;;;;;98.53;33.97;;;;;;;6.19;100.00;103233.19;5094765;28;20016;-74
2021/10/08 01:10:03;;;;;;;153.52;42.67;;;;;;;6.24;100.00;103233.00;5095317;28;20032;-74
2021/10/08 01:12:28;;;;;;;121.55;38.63;;;;;;;6.27;100.00;103236.44;5094262;28;20028;-74
2021/10/08 01:14:54;;;;;;;122.07;37.13;;;;;;;6.32;100.00;103242.41;5095187;28;20084;-73
2021/10/08 01:17:20;;;;;;;176.07;47.00;;;;;;;6.39;100.00;103243.09;5095104;28;20032;-74
2021/10/08 01:19:46;;;;;;;185.82;45.25;;;;;;;6.52;100.00;103235.56;5094495;28;20035;-74
2021/10/08 01:22:13;;;;;;;228.60;55.42;;;;;;;6.67;100.00;103239.44;5094411;28;20052;-74
2021/10/08 01:24:39;;;;;;;265.08;61.42;;;;;;;6.80;100.00;103239.88;5094282;28;20333;-74
2021/10/08 01:27:06;;;;;;;284.23;63.28;;;;;;;6.94;100.00;103248.19;5094909;28;20034;-73
2021/10/08 01:29:32;;;;;;;298.33;63.65;;;;;;;7.06;100.00;103247.72;5094201;28;20368;-73
2021/10/08 01:31:58;;;;;;;270.30;59.83;;;;;;;7.14;100.00;103242.16;5094487;28;20039;-74
2021/10/08 01:34:24;;;;;;;327.42;63.25;;;;;;;7.23;100.00;103249.72;5094958;28;20047;-73
2021/10/08 01:36:49;;;;;;;261.85;61.55;;;;;;;7.29;100.00;103240.69;5094051;28;20684;-73
2021/10/08 01:39:15;;;;;;;257.40;57.83;;;;;;;7.32;100.00;103237.94;5094685;28;20024;-73
2021/10/08 01:41:40;;;;;;;263.05;59.50;;;;;;;7.34;100.00;103244.03;5094043;28;20050;-73
2021/10/08 01:44:05;;;;;;;277.00;61.50;;;;;;;7.36;100.00;103243.97;5094700;28;20059;-73
2021/10/08 01:46:31;;;;;;;235.70;56.10;;;;;;;7.38;100.00;103242.13;5094368;28;20116;-73
2021/10/08 01:48:57;;;;;;;257.95;60.95;;;;;;;7.41;100.00;103247.31;5094503;28;20035;-73
2021/10/08 01:51:23;;;;;;;247.88;59.13;;;;;;;7.43;100.00;103249.91;5094504;28;20043;-73
2021/10/08 01:53:48;;;;;;;283.70;58.90;;;;;;;7.45;100.00;103250.69;5093740;28;20031;-73
2021/10/08 01:56:14;;;;;;;233.73;57.28;;;;;;;7.46;100.00;103247.97;5094412;28;20055;-73
2021/10/08 01:58:39;;;;;;;275.35;61.88;;;;;;;7.49;100.00;103247.00;5093667;28;20019;-74
2021/10/08 02:01:04;;;;;;;346.30;60.42;;;;;;;7.53;100.00;103253.91;5093964;28;20028;-73
2021/10/08 02:03:30;;;;;;;249.13;58.20;;;;;;;7.53;100.00;103245.97;5093689;28;20448;-73
2021/10/08 02:05:55;;;;;;;265.80;60.15;;;;;;;7.55;100.00;103246.75;5093530;28;20353;-73
2021/10/08 02:08:21;;;;;;;263.75;57.75;;;;;;;7.55;100.00;103252.94;5094161;28;20077;-74
2021/10/08 02:10:46;;;;;;;244.48;57.97;;;;;;;7.53;100.00;103249.47;5093069;28;20028;-74
2021/10/08 02:13:11;;;;;;;259.88;58.72;;;;;;;7.53;100.00;103245.97;5094067;28;20032;-73
2021/10/08 02:15:37;;;;;;;234.85;56.45;;;;;;;7.53;100.00;103246.81;5093326;28;20020;-73
2021/10/08 02:18:02;;;;;;;232.85;53.90;;;;;;;7.55;100.00;103257.34;5094207;28;20024;-73
2021/10/08 02:20:28;;;;;;;256.38;54.28;;;;;;;7.53;100.00;103249.47;5093417;28;20421;-73
2021/10/08 02:22:53;;;;;;;225.65;52.72;;;;;;;7.53;100.00;103253.91;5093509;28;20530;-73
2021/10/08 02:25:19;;;;;;;318.95;60.95;;;;;;;7.52;100.00;103257.47;5093815;28;20032;-73
2021/10/08 02:27:44;;;;;;;334.40;54.13;;;;;;;7.51;100.00;103258.38;5093195;28;20031;-73
2021/10/08 02:30:11;;;;;;;274.58;54.30;;;;;;;7.49;100.00;103247.00;5093823;28;20024;-73
2021/10/08 02:32:36;;;;;;;240.90;53.55;;;;;;;7.47;100.00;103248.88;5093633;28;20460;-73
2021/10/08 02:35:02;;;;;;;375.50;55.97;;;;;;;7.46;100.00;103249.78;5075457;28;20035;-73
2021/10/08 02:37:28;;;;;;;468.20;55.58;;;;;;;7.45;100.00;103250.69;5093654;28;20061;-73
2021/10/08 02:39:53;;;;;;;261.17;49.88;;;;;;;7.43;100.00;103252.53;5074878;28;20032;-73
2021/10/08 02:42:19;;;;;;;197.77;50.20;;;;;;;7.42;100.00;103249.03;5093860;28;20111;-73
2021/10/08 02:44:44;;;;;;;762.08;57.42;;;;;;;7.40;100.00;103251.75;5092770;28;20024;-73
2021/10/08 02:47:10;;;;;;;253.48;50.30;;;;;;;7.38;100.00;103252.72;5093524;28;20106;-73
2021/10/08 02:49:35;;;;;;;205.68;49.67;;;;;;;7.36;100.00;103254.56;5093423;28;20075;-73
2021/10/08 02:52:02;;;;;;;210.27;52.90;;;;;;;7.36;100.00;103250.13;5092863;28;20055;-73
2021/10/08 02:54:27;;;;;;;290.42;50.28;;;;;;;7.38;100.00;103250.06;5093147;28;20047;-73
2021/10/08 02:56:53;;;;;;;430.42;47.35;;;;;;;7.34;100.00;103251.09;5092844;28;20027;-73
2021/10/08 02:59:18;;;;;;;346.13;48.70;;;;;;;7.32;100.00;103245.03;5093050;28;20063;-73
2021/10/08 03:01:44;;;;;;;214.35;49.00;;;;;;;7.29;100.00;103251.28;5092516;28;20039;-73
2021/10/08 03:04:09;;;;;;;357.20;53.35;;;;;;;7.30;100.00;103254.78;5093109;28;20042;-73
2021/10/08 03:06:35;;;;;;;214.68;44.47;;;;;;;7.26;100.00;103254.06;5093101;28;20028;-73
2021/10/08 03:09:00;;;;;;;410.35;44.42;;;;;;;7.22;100.00;103252.44;5092151;28;20478;-72
2021/10/08 03:11:26;;;;;;;442.13;48.90;;;;;;;7.16;100.00;103252.69;5093114;28;20341;-73
2021/10/08 03:13:52;;;;;;;224.18;46.90;;;;;;;7.14;100.00;103262.47;5091787;28;20028;-73
2021/10/08 03:16:17;;;;;;;385.67;47.72;;;;;;;7.11;100.00;103265.25;5092975;28;20024;-73
2021/10/08 03:18:43;;;;;;;465.85;45.97;;;;;;;7.07;100.00;103259.16;5092129;28;20031;-73
2021/10/08 03:21:08;;;;;;;178.48;45.47;;;;;;;7.04;100.00;103265.44;5092685;28;20048;-73
2021/10/08 03:23:34;;;;;;;227.23;51.60;;;;;;;7.05;100.00;103268.97;5092774;28;20367;-73
2021/10/08 03:25:59;;;;;;;244.38;49.17;;;;;;;7.09;100.00;103264.41;5092125;28;20027;-74
2021/10/08 03:28:24;;;;;;;547.33;51.95;;;;;;;7.10;100.00;103266.16;5092813;28;20118;-74
2021/10/08 03:30:50;;;;;;;188.73;49.03;;;;;;;7.09;100.00;103267.94;5092124;28;20368;-74
2021/10/08 03:33:15;;;;;;;245.65;46.75;;;;;;;7.05;100.00;103261.03;5092779;28;20027;-74
2021/10/08 03:35:43;;;;;;;195.93;48.05;;;;;;;7.04;100.00;103270.72;5092780;28;20035;-74
2021/10/08 03:38:20;;;;;;;231.88;46.33;;;;;;;7.03;100.00;103263.72;5092008;28;20376;-74
2021/10/08 03:43:23;;;;;;;324.40;45.40;;;;;;;6.95;100.00;103264.94;5092581;28;20032;-74
2021/10/08 03:45:50;;;;;;;233.57;45.88;;;;;;;6.94;100.00;103255.25;5091887;28;20483;-74
2021/10/08 03:50:56;;;;;;;233.43;42.72;;;;;;;6.89;100.00;103255.44;5091977;28;20032;-73
2021/10/08 03:53:22;;;;;;;247.45;43.15;;;;;;;6.84;100.00;103255.59;5092478;28;20024;-74
2021/10/08 03:55:47;;;;;;;228.23;38.85;;;;;;;6.78;100.00;103257.63;5091888;28;20035;-75
2021/10/08 03:58:13;;;;;;;128.07;32.88;;;;;;;6.77;100.00;103258.53;5092203;28;20020;-74
2021/10/08 04:00:38;;;;;;;209.30;44.05;;;;;;;6.74;100.00;103266.56;5092508;28;20103;-74
2021/10/08 04:03:03;;;;;;;208.23;41.65;;;;;;;6.70;100.00;103257.84;5091587;28;20051;-74
2021/10/08 04:05:29;;;;;;;162.85;44.28;;;;;;;6.70;100.00;103260.50;5092413;28;20410;-74
2021/10/08 04:07:54;;;;;;;296.42;44.75;;;;;;;6.69;100.00;103254.38;5091714;28;20464;-74
2021/10/08 04:10:19;;;;;;;571.90;41.22;;;;;;;6.64;100.00;103261.63;5092159;28;20052;-74
2021/10/08 04:12:45;;;;;;;171.02;39.85;;;;;;;6.61;100.00;103258.19;5092115;28;20020;-74
2021/10/08 04:15:10;;;;;;;272.77;45.35;;;;;;;6.63;100.00;103266.97;5091766;28;20467;-74
2021/10/08 04:17:36;;;;;;;222.15;41.25;;;;;;;6.61;100.00;103266.97;5092541;28;20431;-74
2021/10/08 04:20:03;;;;;;;203.93;38.80;;;;;;;6.58;100.00;103271.53;5091840;28;20028;-74
2021/10/08 04:22:29;;;;;;;255.73;45.42;;;;;;;6.58;100.00;103268.88;5091649;28;20507;-74
2021/10/08 04:24:54;;;;;;;248.02;41.58;;;;;;;6.59;100.00;103273.28;5091855;28;20029;-74
2021/10/08 04:27:19;;;;;;;418.70;42.35;;;;;;;6.56;100.00;103271.59;5096101;28;20028;-75
2021/10/08 04:29:45;;;;;;;165.68;44.30;;;;;;;6.54;100.00;103268.13;5095810;28;20030;-74
2021/10/08 04:32:10;;;;;;;215.60;41.78;;;;;;;6.55;100.00;103269.84;5095224;28;20482;-74
2021/10/08 04:34:35;;;;;;;175.18;42.38;;;;;;;6.55;100.00;103267.19;5096020;28;20027;-74
2021/10/08 04:37:01;;;;;;;290.50;43.10;;;;;;;6.54;100.00;103276.06;5095321;28;20440;-74
2021/10/08 04:39:26;;;;;;;240.65;36.08;;;;;;;6.47;100.00;103279.84;5077748;28;20024;-74
2021/10/08 04:41:52;;;;;;;174.57;35.53;;;;;;;6.43;100.00;103280.84;5095579;28;20359;-74
2021/10/08 04:44:17;;;;;;;199.10;37.97;;;;;;;6.40;100.00;103276.53;5095909;28;20114;-74
2021/10/08 04:46:42;;;;;;;166.27;40.22;;;;;;;6.41;100.00;103280.91;5078009;28;20028;-74
2021/10/08 04:49:08;;;;;;;196.10;43.47;;;;;;;6.45;100.00;103281.66;5095136;28;20028;-74
2021/10/08 04:51:33;;;;;;;221.82;39.90;;;;;;;6.46;100.00;103280.75;5095696;28;20118;-74
2021/10/08 04:53:59;;;;;;;166.77;39.42;;;;;;;6.45;100.00;103279.00;5095064;28;20035;-74
2021/10/08 04:56:24;;;;;;;196.20;39.65;;;;;;;6.44;100.00;103272.88;5095598;28;20064;-74
2021/10/08 04:58:49;;;;;;;169.10;39.42;;;;;;;6.44;100.00;103272.88;5095611;28;20027;-74
2021/10/08 05:01:15;;;;;;;162.50;41.15;;;;;;;6.44;100.00;103282.59;5094919;28;20028;-74
2021/10/08 05:03:41;;;;;;;465.50;39.25;;;;;;;6.42;100.00;103276.47;5095464;28;20109;-74
2021/10/08 05:06:06;;;;;;;152.07;37.58;;;;;;;6.37;100.00;103276.63;5094915;28;20059;-74
2021/10/08 05:08:32;;;;;;;281.95;38.15;;;;;;;6.33;100.00;103283.81;5095252;28;20028;-74
2021/10/08 05:10:57;;;;;;;183.70;41.17;;;;;;;6.32;100.00;103281.22;5094806;28;20459;-75
2021/10/08 05:13:22;;;;;;;453.05;41.22;;;;;;;6.32;100.00;103284.72;5096595;28;20059;-75
2021/10/08 05:15:48;;;;;;;171.10;39.38;;;;;;;6.32;100.00;103283.88;5095549;28;20035;-75
2021/10/08 05:18:13;;;;;;;212.80;41.53;;;;;;;6.32;100.00;103283.88;5095053;28;20024;-74
2021/10/08 05:20:39;;;;;;;163.40;36.80;;;;;;;6.34;100.00;103288.19;5095024;28;20028;-74
2021/10/08 05:23:04;;;;;;;217.77;39.00;;;;;;;6.32;100.00;103292.66;5094771;28;20074;-74
2021/10/08 05:25:30;;;;;;;215.55;36.53;;;;;;;6.29;100.00;103287.47;5077046;28;20055;-74
2021/10/08 05:27:56;;;;;;;328.80;37.80;;;;;;;6.26;100.00;103286.72;5094903;28;20020;-74
2021/10/08 05:30:21;;;;;;;421.75;39.40;;;;;;;6.24;100.00;103285.88;5077019;28;20479;-74
2021/10/08 05:32:48;;;;;;;423.38;38.88;;;;;;;6.21;100.00;103291.28;5094816;28;20050;-74
2021/10/08 05:35:13;;;;;;;216.25;35.10;;;;;;;6.19;100.00;103283.41;5094239;28;20043;-74
2021/10/08 05:37:39;;;;;;;176.55;37.28;;;;;;;6.16;100.00;103291.44;5093884;28;20456;-74
2021/10/08 05:40:06;;;;;;;156.75;35.15;;;;;;;6.14;100.00;103291.50;5094151;28;20352;-74
2021/10/08 05:42:31;;;;;;;215.55;38.85;;;;;;;6.13;100.00;103291.53;5076708;28;20039;-74
2021/10/08 05:44:59;;;;;;;304.77;38.85;;;;;;;6.14;100.00;103286.19;5094567;28;20032;-74
2021/10/08 05:47:24;;;;;;;197.13;37.97;;;;;;;6.15;100.00;103298.50;5094766;28;20028;-74
2021/10/08 05:49:50;;;;;;;181.70;38.40;;;;;;;6.15;100.00;103298.50;5094323;28;20054;-74
2021/10/08 05:52:15;;;;;;;181.98;38.00;;;;;;;6.19;100.00;103301.91;5093923;28;20039;-74
2021/10/08 05:54:41;;;;;;;158.90;38.95;;;;;;;6.22;100.00;103301.81;5094473;28;20032;-74
2021/10/08 05:57:08;;;;;;;199.73;42.15;;;;;;;6.25;100.00;103301.69;5075636;28;20036;-74
2021/10/08 05:59:34;;;;;;;130.00;39.75;;;;;;;6.29;100.00;103307.78;5094243;28;20020;-74
2021/10/08 06:01:59;;;;;;;135.82;36.95;;;;;;;6.30;100.00;103296.25;5094338;28;20466;-74
2021/10/08 06:04:24;;;;;;;290.88;35.30;;;;;;;6.22;100.00;103304.44;5093806;28;20077;-74
2021/10/08 06:06:50;;;;;;;243.95;37.80;;;;;;;6.15;100.00;103309.09;5094174;28;20107;-74
2021/10/08 06:09:15;;;;;;;566.08;32.10;;;;;;;6.11;100.00;103311.88;5093528;28;20032;-75
2021/10/08 06:11:41;;;;;;;252.55;32.20;;;;;;;6.07;100.00;103311.09;5094004;28;20444;-74
2021/10/08 06:14:06;;;;;;;277.77;38.08;;;;;;;6.08;100.00;103307.56;5093407;28;20063;-74
2021/10/08 06:16:31;;;;;;;375.55;36.05;;;;;;;6.07;100.00;103315.53;5093997;28;20414;-74
2021/10/08 06:18:57;;;;;;;118.82;30.95;;;;;;;6.06;100.00;103319.09;5093877;28;20027;-74
2021/10/08 06:21:24;;;;;;;145.82;33.97;;;;;;;6.05;100.00;103318.22;5092777;28;20059;-74
2021/10/08 06:23:50;;;;;;;120.68;34.88;;;;;;;6.10;100.00;103315.44;5093954;28;20059;-75
2021/10/08 06:26:15;;;;;;;210.85;34.50;;;;;;;6.17;100.00;103319.63;5093271;28;20108;-74
2021/10/08 06:28:41;;;;;;;140.50;32.38;;;;;;;6.21;100.00;103321.25;5075775;28;20100;-74
2021/10/08 06:31:06;;;;;;;114.25;31.42;;;;;;;6.25;100.00;103329.94;5092874;28;20028;-74
2021/10/08 06:33:32;;;;;;;254.82;30.05;;;;;;;6.23;100.00;103326.50;5093738;28;20038;-74
2021/10/08 06:35:57;;;;;;;168.18;34.05;;;;;;;6.23;100.00;103324.69;5093655;28;20020;-72
2021/10/08 06:38:22;;;;;;;178.38;35.63;;;;;;;6.29;100.00;103332.44;5093036;28;20028;-74
2021/10/08 06:40:48;;;;;;;126.45;33.03;;;;;;;6.35;100.00;103336.66;5093446;28;20020;-73
2021/10/08 06:43:13;;;;;;;118.72;34.13;;;;;;;6.40;100.00;103332.06;5074754;28;20031;-75
2021/10/08 06:45:39;;;;;;;252.73;34.28;;;;;;;6.43;100.00;103331.09;5093225;28;20467;-73
2021/10/08 06:48:05;;;;;;;254.70;32.42;;;;;;;6.37;100.00;103334.81;5075305;28;20031;-76
2021/10/08 06:50:31;;;;;;;239.15;32.13;;;;;;;6.39;100.00;103333.00;5093543;28;20086;-75
2021/10/08 06:52:56;;;;;;;150.90;25.77;;;;;;;6.39;100.00;103333.00;5092954;28;20028;-74
2021/10/08 06:55:22;;;;;;;73.53;28.58;;;;;;;6.43;100.00;103339.91;5092313;28;20032;-75
2021/10/08 06:57:48;;;;;;;136.50;27.75;;;;;;;6.49;100.00;103350.28;5093446;28;20035;-73
2021/10/08 07:00:14;;;;;;;181.98;28.13;;;;;;;6.54;100.00;103347.50;5092598;28;20032;-74
2021/10/08 07:02:53;;;;;;;134.93;27.55;;;;;;;6.61;100.00;103351.63;5093209;28;20031;-74
2021/10/08 07:05:20;;;;;;;116.18;28.77;;;;;;;6.68;100.00;103345.22;5074218;28;20032;-75
2021/10/08 07:07:46;;;;;;;194.77;24.35;;;;;;;6.72;100.00;103359.22;5093274;28;20028;-76
2021/10/08 07:10:13;;;;;;;123.70;24.52;;;;;;;6.74;100.00;103364.47;5092280;28;20036;-75
2021/10/08 07:12:39;;;;;;;131.00;20.33;;;;;;;6.63;100.00;103362.19;5092815;28;20020;-74
2021/10/08 07:15:08;;;;;;;106.55;25.55;;;;;;;6.68;100.00;103360.25;5092925;28;20031;-75
2021/10/08 07:17:38;;;;;;;73.35;25.13;;;;;;;6.68;100.00;103361.09;5093081;28;20062;-76
2021/10/08 07:20:04;;;;;;;298.88;29.08;;;;;;;6.78;100.00;103366.97;5092954;28;20028;-75
2021/10/08 07:22:30;;;;;;;171.68;25.00;;;;;;;6.85;100.00;103364.94;5091717;28;20081;-74
2021/10/08 07:24:55;;;;;;;297.00;25.65;;;;;;;6.88;100.00;103363.09;5092888;28;20441;-73
2021/10/08 07:27:20;;;;;;;400.08;22.08;;;;;;;6.91;100.00;103356.78;5091854;28;20114;-73
2021/10/08 07:29:46;;;;;;;111.47;24.60;;;;;;;6.94;100.00;103367.31;5092833;28;20020;-74
2021/10/08 07:32:11;;;;;;;86.68;20.67;;;;;;;7.00;100.00;103360.91;5092174;28;20028;-74
2021/10/08 07:34:38;;;;;;;68.60;23.83;;;;;;;7.11;100.00;103373.78;5092496;28;20107;-74
2021/10/08 07:37:03;;;;;;;289.90;21.70;;;;;;;7.10;100.00;103372.91;5092702;28;20380;-73
2021/10/08 07:39:28;;;;;;;121.70;21.17;;;;;;;7.09;100.00;103376.50;5092046;28;20028;-75
2021/10/08 07:41:54;;;;;;;96.10;19.30;;;;;;;7.13;99.95;103372.78;5092615;28;20024;-74
2021/10/08 07:44:19;;;;;;;217.63;20.85;;;;;;;7.16;99.92;103374.47;5091893;28;20082;-73
2021/10/08 07:46:44;;;;;;;121.57;20.02;;;;;;;7.24;100.00;103375.09;5082462;28;20035;-75
2021/10/08 07:49:10;;;;;;;151.57;17.98;;;;;;;7.22;98.31;103382.19;5084236;28;20031;-74
2021/10/08 07:51:35;;;;;;;87.75;19.55;;;;;;;7.34;99.16;103379.09;5090906;28;20384;-74
2021/10/08 07:54:02;;;;;;;219.45;18.58;;;;;;;7.40;99.26;103370.06;5091599;28;20414;-73
2021/10/08 07:56:28;;;;;;;93.85;18.55;;;;;;;7.44;98.42;103376.13;5090894;28;20032;-74
2021/10/08 07:58:54;;;;;;;42.97;17.90;;;;;;;7.53;98.80;103381.94;5073526;28;20536;-76
2021/10/08 08:01:19;;;;;;;129.15;18.77;;;;;;;7.47;96.55;103378.66;5093981;28;20093;-73
2021/10/08 08:03:44;;;;;;;112.10;18.67;;;;;;;7.55;97.63;103376.59;5095405;28;20034;-72
2021/10/08 08:06:09;;;;;;;103.88;16.52;;;;;;;7.62;97.85;103377.22;5095355;28;20060;-72
2021/10/08 08:08:35;;;;;;;207.40;16.42;;;;;;;7.64;97.22;103381.53;5094993;28;20028;-72
2021/10/08 08:11:00;;;;;;;115.90;19.88;;;;;;;7.80;98.29;103383.63;5095617;28;20452;-72
2021/10/08 08:13:26;;;;;;;291.30;20.60;;;;;;;7.86;97.44;103378.94;5094998;28;20028;-72
2021/10/08 08:15:52;;;;;;;170.18;15.95;;;;;;;7.90;96.63;103375.25;5095360;28;20095;-72
2021/10/08 08:18:18;;;;;;;56.33;19.33;;;;;;;8.06;97.13;103383.47;5094518;28;20023;-74
2021/10/08 08:20:43;;;;;;;95.90;16.05;;;;;;;8.14;95.70;103382.31;5095097;28;20028;-72
2021/10/08 08:23:09;;;;;;;83.85;15.77;;;;;;;8.18;94.85;103387.44;5095405;28;20028;-72
2021/10/08 08:25:35;;;;;;;137.52;17.58;;;;;;;8.29;96.47;103387.00;5094502;28;20392;-72
2021/10/08 08:28:00;;;;;;;187.75;16.58;;;;;;;8.30;94.50;103388.72;5094969;28;20108;-72
2021/10/08 08:30:26;;;;;;;148.10;17.05;;;;;;;8.40;95.72;103389.19;5094535;28;20454;-73
2021/10/08 08:32:51;;;;;;;128.50;15.38;;;;;;;8.47;95.26;103383.63;5095426;28;20024;-71
2021/10/08 08:35:17;;;;;;;67.28;15.60;;;;;;;8.61;94.34;103385.72;5094367;28;20032;-72
2021/10/08 08:37:42;;;;;;;73.60;16.65;;;;;;;8.80;94.74;103390.22;5076675;28;20062;-73
2021/10/08 08:40:09;;;;;;;90.65;16.75;;;;;;;8.86;92.01;103391.78;5095008;28;20483;-72
2021/10/08 08:42:35;;;;;;;90.03;17.17;;;;;;;8.76;90.64;103397.47;5094335;28;20055;-72
2021/10/08 08:45:01;;;;;;;283.52;16.90;;;;;;;8.74;90.75;103396.66;5094636;28;20413;-72
2021/10/08 08:47:26;;;;;;;170.57;17.38;;;;;;;8.82;93.23;103399.00;5094336;28;20030;-73
2021/10/08 08:49:52;;;;;;;83.72;17.25;;;;;;;8.84;92.36;103397.16;5076449;28;20032;-72
2021/10/08 08:52:19;;;;;;;90.00;16.60;;;;;;;8.74;90.88;103398.47;5094409;28;20044;-77
2021/10/08 08:54:45;;;;;;;99.18;17.50;;;;;;;8.78;92.79;103400.91;5094636;28;20176;-70
2021/10/08 08:57:19;;;;;;;217.18;17.58;;;;;;;8.85;91.87;103395.34;5094630;28;20498;-71
2021/10/08 09:00:23;;;;;;;167.85;16.05;;;;;;;8.85;90.72;103398.84;5094672;28;20494;-72
2021/10/08 09:02:57;;;;;;;135.02;17.73;;;;;;;9.00;92.95;103402.66;4992427;28;20034;-72
2021/10/08 09:05:30;;;;;;;72.88;19.17;;;;;;;9.20;92.52;103403.59;4992051;28;20034;-80
2021/10/08 09:08:02;;;;;;;50.78;19.20;;;;;;;9.42;91.99;103401.72;5051194;28;20053;-75
2021/10/08 09:10:29;;;;;;;35.30;17.88;;;;;;;9.60;91.78;103397.34;5094029;28;20024;-73
2021/10/08 09:12:56;;;;;;;58.97;19.60;;;;;;;9.81;90.94;103400.81;5093158;28;20032;-74
2021/10/08 09:15:24;;;;;;;55.50;19.27;;;;;;;9.98;89.83;103400.00;5094271;28;20028;-76
2021/10/08 09:18:04;;;;;;;129.07;16.95;;;;;;;10.02;88.98;103398.94;5094281;28;20031;-76
2021/10/08 09:20:30;;;;;;;79.50;16.92;;;;;;;10.04;89.21;103397.06;5093753;28;20024;-76
2021/10/08 09:22:55;;;;;;;71.50;17.15;;;;;;;10.08;88.37;103400.44;5094593;28;20467;-76
2021/10/08 09:25:31;;;;;;;57.13;19.05;;;;;;;10.18;88.54;103396.41;5096032;28;20151;-75
2021/10/08 09:28:04;;;;;;;30.40;17.77;;;;;;;10.30;88.52;103397.63;5093712;28;20054;-75
2021/10/08 09:30:51;;;;;;;89.40;19.55;;;;;;;10.58;87.16;103390.94;5093218;28;20039;-76
2021/10/08 09:33:20;;;;;;;33.28;18.70;;;;;;;10.89;87.64;103392.91;5077298;28;20071;-76
2021/10/08 09:35:47;;;;;;;42.53;18.58;;;;;;;10.90;85.77;103391.13;5092829;28;20461;-80
2021/10/08 09:38:15;;;;;;;40.35;16.98;;;;;;;10.83;86.10;103390.56;5075392;28;20472;-78
2021/10/08 09:40:51;;;;;;;34.63;19.48;;;;;;;10.84;87.24;103386.97;5092272;28;20327;-77
2021/10/08 09:43:23;;;;;;;80.28;20.55;;;;;;;11.00;85.96;103388.84;5093746;28;20063;-76
2021/10/08 09:45:51;;;;;;;70.00;20.48;;;;;;;11.27;86.76;103394.50;5093484;28;20028;-78
2021/10/08 09:48:21;;;;;;;40.10;21.52;;;;;;;11.47;85.21;103385.47;5093451;28;20020;-76
2021/10/08 09:51:01;;;;;;;59.08;23.08;;;;;;;11.49;85.17;103382.72;5093376;28;20050;-73
2021/10/08 09:53:27;;;;;;;38.35;22.20;;;;;;;11.40;84.30;103384.91;5074287;28;20047;-78
2021/10/08 09:55:53;;;;;;;41.75;21.60;;;;;;;11.23;84.80;103393.81;5093347;28;20468;-75
2021/10/08 09:58:21;;;;;;;55.50;22.85;;;;;;;11.28;85.44;103391.78;5093224;28;20028;-76
2021/10/08 10:01:01;;;;;;;44.25;23.65;;;;;;;11.56;86.47;103390.28;5092806;28;20032;-77
2021/10/08 10:03:28;;;;;;;55.83;23.23;;;;;;;11.76;83.35;103391.91;5092483;28;20071;-72
2021/10/08 10:05:57;;;;;;;60.83;24.65;;;;;;;11.87;85.28;103393.97;5093256;28;20028;-75
2021/10/08 10:08:23;;;;;;;47.13;25.73;;;;;;;11.98;84.18;103399.56;5093056;28;20020;-75
2021/10/08 10:10:50;;;;;;;50.75;27.83;;;;;;;12.06;84.41;103395.63;5093011;28;20369;-74
2021/10/08 10:13:16;;;;;;;58.33;26.92;;;;;;;11.96;82.84;103396.13;5093251;28;20028;-74
2021/10/08 10:15:48;;;;;;;80.63;26.63;;;;;;;11.70;82.04;103399.34;5074521;28;20035;-76
2021/10/08 10:18:19;;;;;;;53.88;28.25;;;;;;;11.67;85.93;103400.38;5093223;28;20101;-75
2021/10/08 10:20:49;;;;;;;51.38;28.95;;;;;;;11.71;84.81;103407.28;5092130;28;20299;-75
2021/10/08 10:23:21;;;;;;;53.25;28.30;;;;;;;11.93;85.33;103400.78;5092806;28;20472;-75
2021/10/08 10:25:48;;;;;;;52.22;29.08;;;;;;;12.20;85.61;103409.06;5092330;28;20032;-79
2021/10/08 10:28:15;;;;;;;56.80;29.63;;;;;;;12.32;81.34;103405.66;5093146;28;20040;-76
2021/10/08 10:30:41;;;;;;;58.08;28.20;;;;;;;12.45;79.79;103403.16;5092306;28;20050;-80
2021/10/08 10:33:09;;;;;;;53.03;28.98;;;;;;;12.48;81.69;103405.66;5092815;28;20036;-75
2021/10/08 10:35:52;;;;;;;58.20;32.20;;;;;;;12.37;82.03;103402.72;5092207;28;20032;-76
2021/10/08 10:38:36;;;;;;;52.75;29.52;;;;;;;12.46;82.27;103401.34;5092733;28;20060;-76
2021/10/08 10:41:08;;;;;;;55.40;31.10;;;;;;;12.48;81.93;103399.44;5092494;28;20130;-74
2021/10/08 10:43:56;;;;;;;60.20;33.95;;;;;;;12.43;82.34;103390.84;5091883;28;20116;-77
2021/10/08 10:49:37;;;;;;;60.65;34.00;;;;;;;12.53;82.63;103389.38;5092517;28;20040;-78
2021/10/08 10:52:02;;;;;;;58.58;32.85;;;;;;;13.06;82.12;103395.13;5092262;28;20089;-75
2021/10/08 10:54:33;;;;;;;58.65;33.25;;;;;;;13.60;79.45;103396.31;5091706;28;20039;-76
2021/10/08 10:56:59;;;;;;;;;;;;;;;13.85;78.94;103385.81;5092301;28;20107;-76
2021/10/08 10:59:29;;;;;;;52.53;32.90;;;;;;;14.26;75.59;103392.94;5091868;28;20007;-75
2021/10/08 11:02:08;;;;;;;66.82;36.22;;;;;;;14.40;74.68;103391.16;5074170;28;20039;-76
2021/10/08 11:04:40;;;;;;;55.17;35.50;;;;;;;14.46;74.42;103390.75;5091332;28;20718;-72
2021/10/08 11:07:10;;;;;;;58.40;34.80;;;;;;;14.52;74.35;103389.47;5092173;28;20086;-73
2021/10/08 11:09:37;;;;;;;60.72;35.95;;;;;;;14.57;74.60;103392.69;5091505;28;20059;-72
2021/10/08 11:12:32;;;;;;;60.28;35.33;;;;;;;14.78;75.04;103393.97;5092008;28;20028;-72